Flight Track Log - Related Links

Times and Time Zones

All times are in EDT time to prevent confusion due to time zone crossing. See the VH-BLD flight status page for this flight to view local times or setup timezone preferences in your user account.

Time Position Orientation Groundspeed Altitude Reporting Facility
EDT Latitude Longitude Course Direction KTS MPH feet Rate Location/Type
Fri 08:37:32 PM -27.8669 153.4281 177° South 93 107 1,300  Level Aus ATC (RADAR)
Fri 08:38:07 PM -27.8816 153.4290 177° South 91 105 1,400  Climbing Aus ATC (RADAR)
Fri 08:38:47 PM -27.8994 153.4310 174° South 96 110 1,300 -75 Descending Aus ATC (RADAR)
Fri 08:39:27 PM -27.9174 153.4319 178° South 97 112 1,300 60 Level Aus ATC (RADAR)
Fri 08:40:27 PM -27.9449 153.4328 178° South 99 114 1,400  Climbing Aus ATC (RADAR)
Fri 08:41:27 PM -27.9722 153.4348 176° South 98 113 1,300 -57 Descending Aus ATC (RADAR)
Fri 08:42:12 PM -27.9925 153.4358 177° South 97 112 1,300  Level Aus ATC (RADAR)
Fri 08:42:47 PM -28.0086 153.4373 175° South 99 114 1,300 -86 Level Aus ATC (RADAR)
Fri 08:43:22 PM -28.0245 153.4393 173° South 99 114 1,200 185 Descending Aus ATC (RADAR)
Fri 08:43:52 PM -28.0369 153.4415 171° South 91 105 1,500 160 Climbing Aus ATC (RADAR)
Fri 08:44:37 PM -28.0567 153.4468 167° South 98 113 1,400 -71 Descending Aus ATC (RADAR)
Fri 08:45:17 PM -28.0743 153.4529 163° South 100 115 1,400 -180 Level Aus ATC (RADAR)
Fri 08:46:17 PM -28.1017 153.4657 158° South 107 123 1,100 -343 Descending Aus ATC (RADAR)
Fri 08:47:02 PM -28.1180 153.4769 149° Southeast 85 98 800 -456 Descending Aus ATC (RADAR)
Fri 08:47:36 PM -28.1279 153.4832 151° Southeast 71 82 500 -286 Descending Aus ATC (RADAR)
Fri 08:48:26 PM -28.1420 153.4921 151° Southeast 70 81 400 -150 Descending Aus ATC (RADAR)
Fri 08:49:16 PM -28.1571 153.5015 151° Southeast 72 83 -164 Descending Aus ATC (RADAR)
Fri 08:50:16 PM -28.1727 153.5113 151° Southeast 72 83 100 250 Climbing Aus ATC (RADAR)
Fri 08:51:16 PM -28.1874 153.5288 134° Southeast 86 99 500 164 Climbing Aus ATC (RADAR)
Fri 08:52:06 PM -28.1755 153.5540 62° Northeast 111 128 400 -212 Descending Aus ATC (RADAR)
Fri 08:52:41 PM -28.1602 153.5507 349° North 112 129 200 -185 Descending Aus ATC (RADAR)
Fri 08:53:11 PM -28.1620 153.5333 264° West 106 122 200 94 Level Aus ATC (RADAR)
Fri 08:53:45 PM -28.1561 153.5148 290° West 106 122 300 174 Climbing Aus ATC (RADAR)
Fri 08:54:20 PM -28.1432 153.5012 317° Northwest 108 124 400  Climbing Aus ATC (RADAR)
Fri 08:54:55 PM -28.1285 153.4913 329° Northwest 104 120 300 -86 Descending Aus ATC (RADAR)
Fri 08:55:30 PM -28.1170 153.4760 310° West 107 123 300 91 Level Aus ATC (RADAR)
Fri 08:56:01 PM -28.1028 153.4683 334° Northwest 110 127 400 185 Climbing Aus ATC (RADAR)
Fri 08:56:35 PM -28.0869 153.4606 337° Northwest 107 123 500  Climbing Aus ATC (RADAR)
Fri 08:57:10 PM -28.0724 153.4492 325° Northwest 110 127 400 -92 Descending Aus ATC (RADAR)
Fri 08:57:40 PM -28.0578 153.4443 343° North 107 123 400 92 Level Aus ATC (RADAR)
Fri 08:58:15 PM -28.0412 153.4406 349° North 104 120 500 -92 Climbing Aus ATC (RADAR)
Fri 08:58:45 PM -28.0253 153.4376 350° North 114 131 300 -92 Descending Aus ATC (RADAR)
Fri 08:59:20 PM -28.0082 153.4345 351° North 106 122 400  Climbing Aus ATC (RADAR)
Fri 09:00:06 PM -27.9864 153.4327 356° North 106 122 300 57 Descending Aus ATC (RADAR)
Fri 09:01:05 PM -27.9579 153.4319 359° North 98 113 500 173 Climbing Aus ATC (RADAR)
Fri 09:01:50 PM -27.9365 153.4328 North 102 117 600 375 Climbing Aus ATC (RADAR)
Fri 09:02:25 PM -27.9208 153.4326 359° North 95 109 1,000 300 Climbing Aus ATC (RADAR)
Fri 09:03:10 PM -27.8994 153.4309 356° North 105 121 1,000 57 Level Aus ATC (RADAR)
Fri 09:04:10 PM -27.8695 153.4309 360° North 107 123 1,100 261 Climbing Aus ATC (RADAR)
Fri 09:05:05 PM -27.8448 153.4217 342° North 103 119 1,500 185 Climbing Aus ATC (RADAR)
Fri 09:06:20 PM -27.8084 153.4055 339° North 111 128 1,500 45 Level Aus ATC (RADAR)
Fri 09:07:19 PM -27.7857 153.3851 322° Northwest 102 117 1,600  Climbing Aus ATC (RADAR)
Fri 09:08:09 PM -27.7659 153.3656 319° Northwest 112 129 1,500 -71 Descending Aus ATC (RADAR)
Fri 09:08:44 PM -27.7520 153.3527 320° Northwest 108 124 1,500  Level Aus ATC (RADAR)
Fri 09:09:24 PM -27.7370 153.3384 320° Northwest 104 120 1,500 -57 Level Aus ATC (RADAR)
Fri 09:10:29 PM -27.7223 153.3078 298° West 101 116 1,400 -92 Descending Aus ATC (RADAR)
Fri 09:13:58 PM -27.6832 153.2283 300° West -402 Descending Aus ATC (Calculated)
Fri 09:19:11 PM -27.5986 153.0630 213° Southwest  Level Aus ATC (Calculated)
Fri 09:19:11 PM -27.5986 153.0630 213° Southwest  Level Aus ATC (Calculated)

Login

Don't have an account? Register now (free) for customized features, flight alerts, and more!